createdAt,value
2018-01-01T00:00:42.287Z,963.6
2018-01-01T00:01:44.906Z,963.6
2018-01-01T00:02:47.428Z,963.5
2018-01-01T00:03:50.030Z,963.5
2018-01-01T00:04:54.493Z,963.6
2018-01-01T00:05:56.982Z,963.5
2018-01-01T00:06:59.561Z,963.5
2018-01-01T00:08:02.145Z,963.5
2018-01-01T00:09:04.713Z,963.5
2018-01-01T00:10:07.215Z,963.5
2018-01-01T00:11:09.945Z,963.5
2018-01-01T00:12:12.473Z,963.3
2018-01-01T00:13:15.040Z,963.5
2018-01-01T00:14:17.550Z,963.5
2018-01-01T00:15:20.212Z,963.6
2018-01-01T00:16:22.698Z,963.5
2018-01-01T00:17:25.202Z,963.5
2018-01-01T00:18:27.954Z,963.5
2018-01-01T00:19:30.591Z,963.5
2018-01-01T00:20:33.217Z,963.4
2018-01-01T00:21:35.754Z,963.5
2018-01-01T00:22:38.322Z,963.6
2018-01-01T00:23:40.814Z,963.6
2018-01-01T00:24:43.315Z,963.4
2018-01-01T00:25:45.795Z,963.6
2018-01-01T00:26:48.355Z,963.6
2018-01-01T00:27:51.033Z,963.5
2018-01-01T00:28:53.737Z,963.6
2018-01-01T00:29:56.309Z,963.6
2018-01-01T00:30:58.986Z,963.6
2018-01-01T00:32:07.099Z,963.6
2018-01-01T00:33:10.048Z,963.6
2018-01-01T00:34:12.577Z,963.6
2018-01-01T00:35:15.118Z,963.6
2018-01-01T00:36:17.648Z,963.6
2018-01-01T00:37:20.200Z,963.6
2018-01-01T00:38:22.751Z,963.6
2018-01-01T00:39:25.255Z,963.6
2018-01-01T00:40:27.769Z,963.6
2018-01-01T00:41:30.431Z,963.5
2018-01-01T00:42:32.962Z,963.5
2018-01-01T00:43:35.594Z,963.5
2018-01-01T00:44:38.103Z,963.5
2018-01-01T00:45:40.875Z,963.5
2018-01-01T00:46:43.453Z,963.5
2018-01-01T00:47:46.079Z,963.6
2018-01-01T00:48:48.737Z,963.6
2018-01-01T00:49:51.225Z,963.6
2018-01-01T00:50:53.937Z,963.6
2018-01-01T00:51:56.758Z,963.6
2018-01-01T00:52:59.365Z,963.6
2018-01-01T00:54:01.936Z,963.6
2018-01-01T00:55:04.534Z,963.5
2018-01-01T00:56:07.087Z,963.5
2018-01-01T00:57:09.807Z,963.4
2018-01-01T00:58:12.343Z,963.4
2018-01-01T00:59:14.900Z,963.4
2018-01-01T01:00:17.463Z,963.5
2018-01-01T01:01:20.132Z,963.5
2018-01-01T01:02:22.681Z,963.5
2018-01-01T01:03:25.175Z,963.6
2018-01-01T01:04:28.070Z,963.5
2018-01-01T01:05:30.617Z,963.7
2018-01-01T01:06:33.719Z,963.6
2018-01-01T01:07:36.390Z,963.7
2018-01-01T01:08:39.087Z,963.7
2018-01-01T01:09:41.677Z,963.7
2018-01-01T01:10:44.289Z,963.7
2018-01-01T01:11:47.289Z,963.7
2018-01-01T01:12:49.979Z,963.7
2018-01-01T01:13:52.586Z,963.7
2018-01-01T01:14:55.193Z,963.7
2018-01-01T01:15:57.814Z,963.7
2018-01-01T01:17:00.521Z,963.6
2018-01-01T01:18:03.338Z,963.7
2018-01-01T01:19:05.905Z,963.7
2018-01-01T01:20:08.500Z,963.7
2018-01-01T01:21:11.094Z,963.7
2018-01-01T01:22:13.675Z,963.8
2018-01-01T01:23:16.202Z,963.8
2018-01-01T01:24:18.853Z,963.8
2018-01-01T01:25:21.521Z,963.8
2018-01-01T01:26:23.995Z,963.8
2018-01-01T01:27:26.567Z,963.8
2018-01-01T01:28:29.154Z,963.9
2018-01-01T01:29:31.836Z,963.8
2018-01-01T01:30:34.521Z,963.9
2018-01-01T01:31:37.070Z,963.9
2018-01-01T01:32:39.596Z,963.9
2018-01-01T01:33:42.191Z,963.9
2018-01-01T01:34:44.716Z,963.9
2018-01-01T01:35:47.265Z,963.9
2018-01-01T01:36:50.030Z,964
2018-01-01T01:37:52.835Z,964
2018-01-01T01:38:55.452Z,964
2018-01-01T01:39:58.018Z,963.9
2018-01-01T01:41:00.698Z,964
2018-01-01T01:42:03.394Z,964
2018-01-01T01:43:06.641Z,963.9
2018-01-01T01:44:09.225Z,963.9
2018-01-01T01:45:11.738Z,963.9
2018-01-01T01:46:23.291Z,963.7
2018-01-01T01:47:26.122Z,963.8
2018-01-01T01:48:31.055Z,963.7
2018-01-01T01:49:34.327Z,963.8
2018-01-01T01:50:43.802Z,963.6
2018-01-01T01:51:46.909Z,963.8
2018-01-01T01:52:49.859Z,963.9
2018-01-01T01:53:52.745Z,963.6
2018-01-01T01:54:55.568Z,963.9
2018-01-01T01:55:58.227Z,964
2018-01-01T01:57:00.959Z,964
2018-01-01T01:58:03.485Z,964.2
2018-01-01T01:59:06.149Z,964.3
2018-01-01T02:00:08.728Z,964.3
2018-01-01T02:01:11.544Z,964.5
2018-01-01T02:02:14.453Z,964.4
2018-01-01T02:03:17.156Z,964.4
2018-01-01T02:04:21.287Z,964.5
2018-01-01T02:05:24.113Z,964.6
2018-01-01T02:06:27.143Z,964.6
2018-01-01T02:07:29.901Z,964.6
2018-01-01T02:08:32.740Z,964.7
2018-01-01T02:09:35.272Z,964.7
2018-01-01T02:10:37.838Z,964.8
2018-01-01T02:11:42.980Z,964.9
2018-01-01T02:12:45.547Z,964.8
2018-01-01T02:13:48.218Z,965.1
2018-01-01T02:14:51.020Z,965
2018-01-01T02:15:53.647Z,964.9
2018-01-01T02:16:56.297Z,964.9
2018-01-01T02:17:59.362Z,964.9
2018-01-01T02:19:02.224Z,965
2018-01-01T02:20:05.151Z,965
2018-01-01T02:21:08.158Z,964.9
2018-01-01T02:22:11.952Z,964.7
2018-01-01T02:23:16.004Z,964.9
2018-01-01T02:24:18.859Z,964.9
2018-01-01T02:25:21.525Z,965
2018-01-01T02:26:24.257Z,965
2018-01-01T02:27:26.902Z,964.8
2018-01-01T02:28:29.692Z,964.8
2018-01-01T02:29:32.246Z,964.5
2018-01-01T02:30:34.925Z,964.9
2018-01-01T02:31:37.632Z,965
2018-01-01T02:32:40.335Z,964.9
2018-01-01T02:33:44.592Z,964.9
2018-01-01T02:34:47.415Z,965.1
2018-01-01T02:35:50.122Z,964.9
2018-01-01T02:36:52.764Z,965
2018-01-01T02:37:55.396Z,964.9
2018-01-01T02:38:57.994Z,964.8
2018-01-01T02:40:01.456Z,964.9
2018-01-01T02:41:04.709Z,965
2018-01-01T02:42:07.674Z,964.9
2018-01-01T02:43:10.545Z,965
2018-01-01T02:44:13.251Z,965.1
2018-01-01T02:45:15.946Z,965.1
2018-01-01T02:46:18.729Z,965
2018-01-01T02:47:21.652Z,964.9
2018-01-01T02:48:25.593Z,965
2018-01-01T02:49:28.832Z,965
2018-01-01T02:50:31.594Z,965.1
2018-01-01T02:51:34.187Z,965
2018-01-01T02:52:39.255Z,965.1
2018-01-01T02:53:41.818Z,965.1
2018-01-01T02:54:44.455Z,965
2018-01-01T02:55:47.114Z,965.1
2018-01-01T02:56:49.765Z,965.2
2018-01-01T02:57:52.461Z,965.1
2018-01-01T02:58:55.159Z,965.1
2018-01-01T02:59:58.843Z,965.1
2018-01-01T03:01:01.622Z,965.1
2018-01-01T03:02:04.392Z,964.9
2018-01-01T03:03:07.028Z,964.9
2018-01-01T03:04:09.753Z,965.1
2018-01-01T03:05:12.606Z,965.1
2018-01-01T03:06:20.273Z,965
2018-01-01T03:07:22.964Z,965.1
2018-01-01T03:08:25.682Z,965.1
2018-01-01T03:09:28.373Z,965.1
2018-01-01T03:10:31.107Z,965
2018-01-01T03:11:33.698Z,965
2018-01-01T03:12:41.340Z,965
2018-01-01T03:13:44.020Z,964.9
2018-01-01T03:14:46.749Z,964.9
2018-01-01T03:15:49.479Z,964.9
2018-01-01T03:16:52.157Z,964.8
2018-01-01T03:17:54.902Z,964.8
2018-01-01T03:18:57.487Z,965
2018-01-01T03:20:00.849Z,964.7
2018-01-01T03:21:03.748Z,964.9
2018-01-01T03:22:06.481Z,964.9
2018-01-01T03:23:09.111Z,964.9
2018-01-01T03:24:11.824Z,965
2018-01-01T03:25:14.506Z,964.9
2018-01-01T03:26:17.218Z,964.9
2018-01-01T03:27:19.992Z,964.9
2018-01-01T03:28:22.687Z,965
2018-01-01T03:29:25.309Z,964.9
2018-01-01T03:30:28.144Z,965
2018-01-01T03:31:30.880Z,964.9
2018-01-01T03:32:33.603Z,965
2018-01-01T03:33:36.397Z,964.9
2018-01-01T03:34:39.204Z,964.9
2018-01-01T03:35:41.852Z,964.9
2018-01-01T03:36:44.531Z,964.5
2018-01-01T03:37:47.138Z,964.9
2018-01-01T03:38:49.814Z,964.9
2018-01-01T03:39:52.446Z,964.9
2018-01-01T03:40:54.936Z,965
2018-01-01T03:41:57.466Z,965
2018-01-01T03:43:01.328Z,964.9
2018-01-01T03:44:04.525Z,964.8
2018-01-01T03:45:07.249Z,964.9
2018-01-01T03:46:09.936Z,964.9
2018-01-01T03:47:12.559Z,965
2018-01-01T03:48:15.163Z,965
2018-01-01T03:49:17.736Z,965.1
2018-01-01T03:50:20.228Z,965.1
2018-01-01T03:51:22.858Z,965
2018-01-01T03:52:25.622Z,965
2018-01-01T03:53:28.970Z,965
2018-01-01T03:54:31.503Z,965.2
2018-01-01T03:55:34.055Z,965.2
2018-01-01T03:56:36.626Z,965.3
2018-01-01T03:57:39.542Z,965.3
2018-01-01T03:58:42.390Z,965.3
2018-01-01T03:59:45.061Z,965.1
2018-01-01T04:00:47.933Z,965.1
2018-01-01T04:01:50.577Z,965.3
2018-01-01T04:02:53.263Z,965.1
2018-01-01T04:03:55.993Z,965.3
2018-01-01T04:04:58.484Z,965.3
2018-01-01T04:06:01.092Z,965.3
2018-01-01T04:07:03.712Z,965.2
2018-01-01T04:08:06.658Z,965.1
2018-01-01T04:09:09.426Z,965.3
2018-01-01T04:10:12.095Z,965.3
2018-01-01T04:11:14.671Z,965.1
2018-01-01T04:12:17.309Z,965.2
2018-01-01T04:13:20.043Z,965.1
2018-01-01T04:14:22.603Z,965.1
2018-01-01T04:15:25.178Z,965.1
2018-01-01T04:16:27.743Z,965.1
2018-01-01T04:17:30.435Z,965
2018-01-01T04:18:33.176Z,965.1
2018-01-01T04:19:35.776Z,965.1
2018-01-01T04:20:38.286Z,964.8
2018-01-01T04:21:40.858Z,965.1
2018-01-01T04:22:43.421Z,964.8
2018-01-01T04:23:45.953Z,965.1
2018-01-01T04:24:48.496Z,965
2018-01-01T04:25:51.225Z,965
2018-01-01T04:26:53.762Z,965
2018-01-01T04:27:56.404Z,965
2018-01-01T04:28:58.916Z,965
2018-01-01T04:30:01.683Z,965.1
2018-01-01T04:31:04.298Z,965
2018-01-01T04:32:13.723Z,965
2018-01-01T04:33:16.470Z,965.1
2018-01-01T04:34:19.091Z,964.9
2018-01-01T04:35:21.761Z,965.1
2018-01-01T04:36:24.521Z,965
2018-01-01T04:37:27.207Z,965.1
2018-01-01T04:38:30.058Z,965
2018-01-01T04:39:32.777Z,965.1
2018-01-01T04:40:35.368Z,965.1
2018-01-01T04:41:37.894Z,965.1
2018-01-01T04:42:40.488Z,965.2
2018-01-01T04:43:43.019Z,965.1
2018-01-01T04:44:45.635Z,965.1
2018-01-01T04:45:48.194Z,965.1
2018-01-01T04:46:50.744Z,965.2
2018-01-01T04:47:53.395Z,965.2
2018-01-01T04:48:56.047Z,965.2
2018-01-01T04:49:58.823Z,965.2
2018-01-01T04:51:01.521Z,965.1
2018-01-01T04:52:04.120Z,965.1
2018-01-01T04:53:06.720Z,965.1
2018-01-01T04:54:09.198Z,965.1
2018-01-01T04:55:12.567Z,965.1
2018-01-01T04:56:15.170Z,965.1
2018-01-01T04:57:17.705Z,965.2
2018-01-01T04:58:20.311Z,965.1
2018-01-01T04:59:22.932Z,965.1
2018-01-01T05:00:25.545Z,965.1
2018-01-01T05:01:28.193Z,965.1
2018-01-01T05:02:30.839Z,965.2
2018-01-01T05:03:33.582Z,965.1
2018-01-01T05:04:36.322Z,965.2
2018-01-01T05:05:38.883Z,965.2
2018-01-01T05:06:41.469Z,964.9
2018-01-01T05:07:44.025Z,965.1
2018-01-01T05:08:46.605Z,965.2
2018-01-01T05:09:49.119Z,965.2
2018-01-01T05:10:51.842Z,965.2
2018-01-01T05:11:54.357Z,965.2
2018-01-01T05:12:56.870Z,965.1
2018-01-01T05:13:59.584Z,965
2018-01-01T05:15:02.385Z,965.1
2018-01-01T05:16:04.972Z,965.1
2018-01-01T05:17:07.492Z,965.1
2018-01-01T05:18:10.017Z,965.1
2018-01-01T05:19:12.642Z,965.1
2018-01-01T05:20:15.110Z,964.9
2018-01-01T05:21:17.765Z,964.9
2018-01-01T05:22:20.377Z,965.2
2018-01-01T05:23:23.030Z,965.2
2018-01-01T05:24:25.554Z,965.2
2018-01-01T05:25:28.053Z,965.1
2018-01-01T05:26:30.639Z,965.2
2018-01-01T05:27:33.213Z,965.1
2018-01-01T05:28:35.783Z,965.2
2018-01-01T05:29:38.379Z,965.1
2018-01-01T05:30:40.966Z,965.3
2018-01-01T05:31:43.610Z,965.2
2018-01-01T05:32:46.206Z,965.3
2018-01-01T05:33:48.873Z,965.4
2018-01-01T05:34:51.447Z,965.3
2018-01-01T05:35:54.160Z,965.3
2018-01-01T05:36:56.843Z,965.3
2018-01-01T05:37:59.455Z,965.3
2018-01-01T05:39:02.127Z,965.4
2018-01-01T05:40:04.834Z,965.3
2018-01-01T05:41:07.609Z,965.3
2018-01-01T05:42:10.390Z,965.4
2018-01-01T05:43:13.036Z,965.1
2018-01-01T05:44:15.568Z,965.4
2018-01-01T05:45:18.139Z,965.6
2018-01-01T05:46:20.946Z,965.4
2018-01-01T05:47:23.675Z,965.5
2018-01-01T05:48:26.530Z,965.4
2018-01-01T05:49:29.367Z,965.6
2018-01-01T05:50:32.241Z,965.6
2018-01-01T05:51:34.955Z,965.7
2018-01-01T05:52:37.427Z,965.6
2018-01-01T05:53:39.921Z,965.7
2018-01-01T05:54:42.577Z,965.7
2018-01-01T05:55:45.168Z,965.8
2018-01-01T05:56:47.688Z,965.7
2018-01-01T05:57:50.226Z,965.8
2018-01-01T05:58:52.789Z,965.8
2018-01-01T05:59:55.293Z,965.8
2018-01-01T06:00:57.825Z,965.8
2018-01-01T06:02:00.441Z,965.8
2018-01-01T06:03:03.040Z,965.9
2018-01-01T06:04:05.725Z,966
2018-01-01T06:05:08.273Z,965.8
2018-01-01T06:06:10.905Z,965.9
2018-01-01T06:07:13.499Z,965.9
2018-01-01T06:08:16.044Z,965.9
2018-01-01T06:09:18.620Z,965.8
2018-01-01T06:10:21.274Z,965.8
2018-01-01T06:11:23.935Z,965.9
2018-01-01T06:12:26.516Z,965.8
2018-01-01T06:13:29.425Z,965.8
2018-01-01T06:14:32.120Z,965.9
2018-01-01T06:15:35.741Z,966
2018-01-01T06:16:38.371Z,966
2018-01-01T06:17:41.126Z,965.7
2018-01-01T06:18:43.649Z,966
2018-01-01T06:19:46.238Z,966
2018-01-01T06:20:48.909Z,966.2
2018-01-01T06:21:51.884Z,966.1
2018-01-01T06:22:54.498Z,966.1
2018-01-01T06:23:57.964Z,966.1
2018-01-01T06:25:00.503Z,966.2
2018-01-01T06:26:03.044Z,966.2
2018-01-01T06:27:09.524Z,966.2
2018-01-01T06:28:12.156Z,966.2
2018-01-01T06:29:14.648Z,966.3
2018-01-01T06:30:17.337Z,966.3
2018-01-01T06:31:19.897Z,966.3
2018-01-01T06:32:22.559Z,966.4
2018-01-01T06:33:25.110Z,966.4
2018-01-01T06:34:27.806Z,966.1
2018-01-01T06:35:30.407Z,966.5
2018-01-01T06:36:32.867Z,966.4
2018-01-01T06:37:35.358Z,966.4
2018-01-01T06:38:37.824Z,966.4
2018-01-01T06:39:40.363Z,966.5
2018-01-01T06:40:42.851Z,966.5
2018-01-01T06:41:45.439Z,966.5
2018-01-01T06:42:48.032Z,966.5
2018-01-01T06:43:50.721Z,966.5
2018-01-01T06:44:53.563Z,966.5
2018-01-01T06:45:56.060Z,966.6
2018-01-01T06:46:58.664Z,966.5
2018-01-01T06:48:01.374Z,966.6
2018-01-01T06:49:04.044Z,966.4
2018-01-01T06:50:06.528Z,966.6
2018-01-01T06:51:09.040Z,966.6
2018-01-01T06:52:11.601Z,966.6
2018-01-01T06:53:14.248Z,966.5
2018-01-01T06:54:16.741Z,966.7
2018-01-01T06:55:19.310Z,966.5
2018-01-01T06:56:22.089Z,966.6
2018-01-01T06:57:24.704Z,966.7
2018-01-01T06:58:27.231Z,966.6
2018-01-01T06:59:29.706Z,966.6
2018-01-01T07:00:32.287Z,966.7
2018-01-01T07:01:34.791Z,966.6
2018-01-01T07:02:37.429Z,966.7
2018-01-01T07:03:40.096Z,966.7
2018-01-01T07:04:42.610Z,966.6
2018-01-01T07:05:45.176Z,966.7
2018-01-01T07:06:47.717Z,966.7
2018-01-01T07:07:51.662Z,966.8
2018-01-01T07:08:54.184Z,966.8
2018-01-01T07:09:56.770Z,966.8
2018-01-01T07:10:59.303Z,966.8
2018-01-01T07:12:02.014Z,966.8
2018-01-01T07:13:04.682Z,966.7
2018-01-01T07:14:07.330Z,966.9
2018-01-01T07:15:10.162Z,966.9
2018-01-01T07:16:13.584Z,966.9
2018-01-01T07:17:16.435Z,966.9
2018-01-01T07:18:18.957Z,966.9
2018-01-01T07:19:21.442Z,966.9
2018-01-01T07:20:24.081Z,966.9
2018-01-01T07:21:26.696Z,967
2018-01-01T07:22:29.243Z,967
2018-01-01T07:23:31.958Z,966.6
2018-01-01T07:24:34.643Z,967
2018-01-01T07:25:37.242Z,967
2018-01-01T07:26:39.881Z,966.9
2018-01-01T07:27:42.662Z,967
2018-01-01T07:28:45.422Z,967
2018-01-01T07:29:48.169Z,966.9
2018-01-01T07:30:51.115Z,967
2018-01-01T07:31:53.715Z,967
2018-01-01T07:32:56.193Z,967.2
2018-01-01T07:33:58.723Z,967.2
2018-01-01T07:35:01.451Z,967.2
2018-01-01T07:36:04.020Z,967.1
2018-01-01T07:37:06.557Z,967.1
2018-01-01T07:38:09.057Z,967
2018-01-01T07:39:11.660Z,967
2018-01-01T07:40:14.123Z,967
2018-01-01T07:41:16.651Z,966.9
2018-01-01T07:42:19.258Z,967.1
2018-01-01T07:43:21.838Z,967.1
2018-01-01T07:44:24.348Z,967.1
2018-01-01T07:45:26.950Z,967.1
2018-01-01T07:46:29.482Z,967.1
2018-01-01T07:47:32.317Z,967.1
2018-01-01T07:48:35.563Z,967.1
2018-01-01T07:49:38.227Z,967.1
2018-01-01T07:50:40.826Z,967.2
2018-01-01T07:51:43.312Z,967.2
2018-01-01T07:52:46.011Z,967.3
2018-01-01T07:53:48.535Z,967.3
2018-01-01T07:54:51.271Z,967.3
2018-01-01T07:55:53.724Z,967.3
2018-01-01T07:56:56.239Z,967.3
2018-01-01T07:57:58.880Z,967.3
2018-01-01T07:59:01.450Z,967.3
2018-01-01T08:00:03.926Z,967.3
2018-01-01T08:01:06.546Z,967.3
2018-01-01T08:02:09.392Z,967.3
2018-01-01T08:03:12.023Z,967.3
2018-01-01T08:04:14.511Z,967.3
2018-01-01T08:05:17.056Z,967.4
2018-01-01T08:06:24.584Z,967.3
2018-01-01T08:07:27.092Z,967.3
2018-01-01T08:08:29.686Z,967.4
2018-01-01T08:09:32.193Z,967.4
2018-01-01T08:10:34.730Z,967.4
2018-01-01T08:11:37.284Z,967.4
2018-01-01T08:12:39.779Z,967.5
2018-01-01T08:13:42.363Z,967.5
2018-01-01T08:14:44.904Z,967.5
2018-01-01T08:15:47.431Z,967.5
2018-01-01T08:16:49.918Z,967.5
2018-01-01T08:17:52.528Z,967.5
2018-01-01T08:18:55.238Z,967.6
2018-01-01T08:19:57.775Z,967.6
2018-01-01T08:21:00.277Z,967.6
2018-01-01T08:22:02.952Z,967.6
2018-01-01T08:23:05.513Z,967.5
2018-01-01T08:24:08.000Z,967.6
2018-01-01T08:25:10.583Z,967.7
2018-01-01T08:26:13.950Z,967.7
2018-01-01T08:27:16.519Z,967.7
2018-01-01T08:28:19.047Z,967.5
2018-01-01T08:29:21.620Z,967.8
2018-01-01T08:30:24.263Z,967.7
2018-01-01T08:31:26.788Z,967.7
2018-01-01T08:32:29.472Z,967.7
2018-01-01T08:33:32.015Z,967.8
2018-01-01T08:34:34.527Z,967.6
2018-01-01T08:35:37.051Z,967.6
2018-01-01T08:36:39.680Z,967.6
2018-01-01T08:37:42.270Z,967.6
2018-01-01T08:38:45.408Z,967.6
2018-01-01T08:39:47.866Z,967.5
2018-01-01T08:40:50.412Z,967.5
2018-01-01T08:41:53.003Z,967.7
2018-01-01T08:42:55.499Z,967.7
2018-01-01T08:43:58.005Z,967.6
2018-01-01T08:45:00.727Z,967.6
2018-01-01T08:46:03.315Z,967.6
2018-01-01T08:47:05.838Z,967.6
2018-01-01T08:48:08.433Z,967.7
2018-01-01T08:49:10.875Z,967.7
2018-01-01T08:50:13.602Z,967.7
2018-01-01T08:51:16.128Z,967.6
2018-01-01T08:52:18.725Z,967.6
2018-01-01T08:53:21.309Z,967.7
2018-01-01T08:54:23.817Z,967.7
2018-01-01T08:55:27.164Z,967.7
2018-01-01T08:56:29.642Z,967.4
2018-01-01T08:57:32.225Z,967.7
2018-01-01T08:58:34.709Z,967.7
2018-01-01T08:59:37.303Z,967.7
2018-01-01T09:00:39.772Z,967.7
2018-01-01T09:01:42.296Z,967.8
2018-01-01T09:02:45.031Z,967.9
2018-01-01T09:03:47.486Z,967.8
2018-01-01T09:04:49.946Z,967.9
2018-01-01T09:05:52.463Z,967.9
2018-01-01T09:06:54.930Z,967.9
2018-01-01T09:07:57.584Z,968
2018-01-01T09:09:00.146Z,968.1
2018-01-01T09:10:02.762Z,967.8
2018-01-01T09:11:05.325Z,968.1
2018-01-01T09:12:07.889Z,968
2018-01-01T09:13:10.435Z,968.1
2018-01-01T09:14:13.048Z,968.1
2018-01-01T09:15:15.508Z,968.1
2018-01-01T09:16:17.998Z,968.2
2018-01-01T09:17:20.520Z,968.1
2018-01-01T09:18:23.098Z,968.1
2018-01-01T09:19:25.567Z,968.1
2018-01-01T09:20:28.076Z,968.2
2018-01-01T09:21:31.001Z,968.1
2018-01-01T09:22:33.604Z,968.1
2018-01-01T09:23:36.191Z,968.2
2018-01-01T09:24:38.772Z,968.3
2018-01-01T09:25:41.356Z,968.2
2018-01-01T09:26:43.921Z,968.2
2018-01-01T09:27:46.452Z,968.2
2018-01-01T09:28:49.005Z,968.2
2018-01-01T09:29:51.715Z,968.2
2018-01-01T09:30:54.259Z,968.3
2018-01-01T09:31:56.741Z,968.2
2018-01-01T09:32:59.241Z,968.2
2018-01-01T09:34:01.907Z,968.2
2018-01-01T09:35:04.361Z,968.3
2018-01-01T09:36:06.818Z,968.2
2018-01-01T09:37:09.390Z,968.3
2018-01-01T09:38:11.996Z,968.3
2018-01-01T09:39:14.613Z,968.2
2018-01-01T09:40:17.165Z,968.3
2018-01-01T09:41:19.708Z,968.2
2018-01-01T09:42:22.268Z,968.2
2018-01-01T09:43:24.809Z,968.3
2018-01-01T09:44:27.283Z,968.1
2018-01-01T09:45:29.773Z,968.3
2018-01-01T09:46:32.257Z,968.3
2018-01-01T09:47:34.786Z,968.3
2018-01-01T09:48:37.299Z,968.2
2018-01-01T09:49:39.754Z,968.2
2018-01-01T09:50:42.254Z,968.2
2018-01-01T09:51:44.810Z,968.1
2018-01-01T09:52:47.561Z,968.1
2018-01-01T09:53:50.122Z,968.1
2018-01-01T09:54:52.774Z,968.1
2018-01-01T09:55:55.408Z,968
2018-01-01T09:56:58.101Z,968.1
2018-01-01T09:58:00.766Z,968.1
2018-01-01T09:59:03.504Z,968.1
2018-01-01T10:00:06.072Z,968
2018-01-01T10:01:08.636Z,968
2018-01-01T10:02:11.330Z,967.9
2018-01-01T10:03:13.914Z,967.9
2018-01-01T10:04:16.401Z,967.9
2018-01-01T10:05:19.394Z,967.9
2018-01-01T10:06:21.964Z,967.9
2018-01-01T10:07:24.472Z,968
2018-01-01T10:08:26.984Z,967.9
2018-01-01T10:09:29.447Z,967.9
2018-01-01T10:10:32.010Z,968
2018-01-01T10:11:34.578Z,968
2018-01-01T10:12:37.136Z,968
2018-01-01T10:13:39.815Z,968
2018-01-01T10:14:42.514Z,967.9
2018-01-01T10:15:45.154Z,967.9
2018-01-01T10:16:47.719Z,967.9
2018-01-01T10:17:50.588Z,967.9
2018-01-01T10:18:53.162Z,967.8
2018-01-01T10:19:55.656Z,967.9
2018-01-01T10:20:58.306Z,967.8
2018-01-01T10:22:00.934Z,967.9
2018-01-01T10:23:03.708Z,967.9
2018-01-01T10:24:06.456Z,967.8
2018-01-01T10:25:08.956Z,967.8
2018-01-01T10:26:11.421Z,967.8
2018-01-01T10:27:18.198Z,967.8
2018-01-01T10:28:20.764Z,967.9
2018-01-01T10:29:23.408Z,967.8
2018-01-01T10:30:25.954Z,967.8
2018-01-01T10:31:28.529Z,967.9
2018-01-01T10:32:31.092Z,967.8
2018-01-01T10:33:33.687Z,967.8
2018-01-01T10:34:36.229Z,967.7
2018-01-01T10:35:38.967Z,967.7
2018-01-01T10:36:41.527Z,967.8
2018-01-01T10:37:44.713Z,967.7
2018-01-01T10:38:47.219Z,967.6
2018-01-01T10:39:49.788Z,967.7
2018-01-01T10:40:52.310Z,967.6
2018-01-01T10:41:54.986Z,967.5
2018-01-01T10:42:57.438Z,967.6
2018-01-01T10:43:59.986Z,967.6
2018-01-01T10:45:02.660Z,967.6
2018-01-01T10:46:05.391Z,967.6
2018-01-01T10:47:08.258Z,967.6
2018-01-01T10:48:10.807Z,967.6
2018-01-01T10:49:13.435Z,967.5
2018-01-01T10:50:16.001Z,967.5
2018-01-01T10:51:18.616Z,967.3
2018-01-01T10:52:21.232Z,967.5
2018-01-01T10:53:23.954Z,967.3
2018-01-01T10:54:26.403Z,967.4
2018-01-01T10:55:29.006Z,967.4
2018-01-01T10:56:32.071Z,967.5
2018-01-01T10:57:35.833Z,967.3
2018-01-01T10:58:38.442Z,967.2
2018-01-01T10:59:40.940Z,967.4
2018-01-01T11:00:44.125Z,967.4
2018-01-01T11:01:46.689Z,967.4
2018-01-01T11:02:49.182Z,967.4
2018-01-01T11:03:51.771Z,967.4
2018-01-01T11:04:54.337Z,967.3
2018-01-01T11:05:56.984Z,967.3
2018-01-01T11:06:59.647Z,967.4
2018-01-01T11:08:02.327Z,967.3
2018-01-01T11:09:04.893Z,967.3
2018-01-01T11:10:07.527Z,967.3
2018-01-01T11:11:10.187Z,967.3
2018-01-01T11:12:12.965Z,967.3
2018-01-01T11:13:15.531Z,967.3
2018-01-01T11:14:18.139Z,967.2
2018-01-01T11:15:20.776Z,967.1
2018-01-01T11:16:23.472Z,967.3
2018-01-01T11:17:25.964Z,967.2
2018-01-01T11:18:28.694Z,967.3
2018-01-01T11:19:31.221Z,967.2
2018-01-01T11:20:33.882Z,967.2
2018-01-01T11:21:36.467Z,967.2
2018-01-01T11:22:39.013Z,967.3
2018-01-01T11:23:41.570Z,967.2
2018-01-01T11:24:44.110Z,967.3
2018-01-01T11:25:46.680Z,967.3
2018-01-01T11:26:49.160Z,967.3
2018-01-01T11:27:51.682Z,967.3
2018-01-01T11:28:54.226Z,967.2
2018-01-01T11:29:56.828Z,967.2
2018-01-01T11:30:59.367Z,967.2
2018-01-01T11:32:01.929Z,967.2
2018-01-01T11:33:08.770Z,967.1
2018-01-01T11:34:11.374Z,967.1
2018-01-01T11:35:14.004Z,967.1
2018-01-01T11:36:17.086Z,967.2
2018-01-01T11:37:19.692Z,967.2
2018-01-01T11:38:22.306Z,967.2
2018-01-01T11:39:24.854Z,967.1
2018-01-01T11:40:28.101Z,966.9
2018-01-01T11:41:30.687Z,967
2018-01-01T11:42:33.419Z,967.1
2018-01-01T11:43:36.080Z,967.1
2018-01-01T11:44:38.602Z,967.1
2018-01-01T11:45:41.230Z,967
2018-01-01T11:46:43.990Z,967.1
2018-01-01T11:47:46.640Z,967
2018-01-01T11:48:49.229Z,967.1
2018-01-01T11:49:52.737Z,967
2018-01-01T11:50:55.411Z,967
2018-01-01T11:51:57.972Z,966.9
2018-01-01T11:53:00.598Z,966.8
2018-01-01T11:54:03.222Z,966.8
2018-01-01T11:55:05.964Z,966.9
2018-01-01T11:56:08.606Z,966.7
2018-01-01T11:57:11.076Z,966.8
2018-01-01T11:58:13.910Z,966.8
2018-01-01T11:59:18.465Z,966.8
2018-01-01T12:00:21.086Z,966.8
2018-01-01T12:01:24.870Z,966.9
2018-01-01T12:02:27.619Z,966.8
2018-01-01T12:03:30.372Z,966.8
2018-01-01T12:04:33.062Z,966.8
2018-01-01T12:05:35.575Z,966.7
2018-01-01T12:06:38.286Z,966.7
2018-01-01T12:07:40.833Z,966.8
2018-01-01T12:08:43.551Z,966.7
2018-01-01T12:09:46.234Z,966.7
2018-01-01T12:10:48.825Z,966.8
2018-01-01T12:11:52.800Z,966.7
2018-01-01T12:12:55.594Z,966.7
2018-01-01T12:13:58.261Z,966.7
2018-01-01T12:15:00.823Z,966.8
2018-01-01T12:16:03.515Z,966.7
2018-01-01T12:17:06.265Z,966.7
2018-01-01T12:18:08.857Z,966.7
2018-01-01T12:19:11.492Z,966.8
2018-01-01T12:20:14.095Z,966.7
2018-01-01T12:21:16.793Z,966.7
2018-01-01T12:22:19.394Z,966.7
2018-01-01T12:23:22.048Z,966.7
2018-01-01T12:24:24.596Z,966.6
2018-01-01T12:25:27.271Z,966.5
2018-01-01T12:26:30.188Z,966.5
2018-01-01T12:27:32.917Z,966.5
2018-01-01T12:28:35.548Z,966.5
2018-01-01T12:29:38.184Z,966.6
2018-01-01T12:30:40.763Z,966.5
2018-01-01T12:31:43.388Z,966.5
2018-01-01T12:32:46.226Z,966.4
2018-01-01T12:33:48.823Z,966.4
2018-01-01T12:34:51.447Z,966.5
2018-01-01T12:35:54.033Z,966.5
2018-01-01T12:36:56.606Z,966.5
2018-01-01T12:37:59.287Z,966.5
2018-01-01T12:39:02.071Z,966.5
2018-01-01T12:40:04.730Z,966.5
2018-01-01T12:41:07.487Z,966.5
2018-01-01T12:42:10.206Z,966.5
2018-01-01T12:43:12.897Z,966.5
2018-01-01T12:44:15.539Z,966.5
2018-01-01T12:45:18.102Z,966.4
2018-01-01T12:46:20.734Z,966.4
2018-01-01T12:47:23.433Z,966.3
2018-01-01T12:48:26.128Z,966.4
2018-01-01T12:49:28.795Z,966.4
2018-01-01T12:50:31.746Z,966.2
2018-01-01T12:51:34.356Z,966.3
2018-01-01T12:52:37.020Z,966.3
2018-01-01T12:53:39.638Z,966.3
2018-01-01T12:54:42.247Z,966.3
2018-01-01T12:55:44.902Z,966.3
2018-01-01T12:56:47.907Z,966.3
2018-01-01T12:57:50.438Z,966.3
2018-01-01T12:58:53.053Z,966.3
2018-01-01T12:59:55.705Z,966.3
2018-01-01T13:00:59.075Z,966.3
2018-01-01T13:02:01.871Z,966.3
2018-01-01T13:03:04.588Z,966.3
2018-01-01T13:04:07.427Z,966.3
2018-01-01T13:05:09.989Z,966.3
2018-01-01T13:06:12.631Z,966.2
2018-01-01T13:07:15.248Z,966.4
2018-01-01T13:08:18.232Z,966.3
2018-01-01T13:09:20.884Z,966.3
2018-01-01T13:10:23.478Z,966.4
2018-01-01T13:11:26.156Z,966.4
2018-01-01T13:12:28.894Z,966.4
2018-01-01T13:13:31.972Z,966.2
2018-01-01T13:14:34.468Z,966.4
2018-01-01T13:15:37.307Z,966.3
2018-01-01T13:16:40.344Z,966.3
2018-01-01T13:17:42.990Z,966.3
2018-01-01T13:18:45.560Z,966.2
2018-01-01T13:19:48.091Z,966.3
2018-01-01T13:20:50.674Z,966.2
2018-01-01T13:21:53.286Z,966.2
2018-01-01T13:22:55.978Z,966.1
2018-01-01T13:23:58.571Z,966.1
2018-01-01T13:25:01.168Z,966.1
2018-01-01T13:26:04.070Z,966.1
2018-01-01T13:27:06.763Z,966
2018-01-01T13:28:10.776Z,966.1
2018-01-01T13:29:13.573Z,966.1
2018-01-01T13:30:16.246Z,966.1
2018-01-01T13:31:21.082Z,965.9
2018-01-01T13:32:23.711Z,965.9
2018-01-01T13:33:26.463Z,966.1